Time;durP1;ratioP1;P1;durP2;ratioP2;P2;SDS_P1;SDS_P2;PMS_P1;PMS_P2;Temp;Humidity;BMP_temperature;BMP_pressure;BME280_temperature;BME280_humidity;BME280_pressure;Samples;Min_cycle;Max_cycle;Signal;HPM_P1;HPM_P2
2023/07/20 00:01:24;;;;;;;;;;;22.20;81.40;;;;;;5036345;28;19917;-84
2023/07/20 00:03:54;;;;;;;;;;;22.20;81.80;;;;;;5053342;28;19983;-82
2023/07/20 00:06:40;;;;;;;;;;;22.20;81.70;;;;;;5053309;28;19939;-82
2023/07/20 00:09:07;;;;;;;;;;;22.30;80.80;;;;;;5069872;28;19962;-86
2023/07/20 00:11:36;;;;;;;;;;;22.30;80.50;;;;;;5052919;28;19921;-83
2023/07/20 00:14:02;;;;;;;;;;;22.40;80.70;;;;;;5053286;28;19916;-82
2023/07/20 00:16:28;;;;;;;;;;;22.30;81.10;;;;;;5053947;28;19979;-84
2023/07/20 00:18:54;;;;;;;;;;;22.30;82.00;;;;;;5053001;28;19999;-83
2023/07/20 00:21:20;;;;;;;;;;;22.30;80.90;;;;;;5053636;28;19920;-84
2023/07/20 00:23:46;;;;;;;;;;;22.30;81.10;;;;;;5054020;28;19921;-81
2023/07/20 00:26:12;;;;;;;;;;;22.30;80.40;;;;;;5052388;28;19928;-83
2023/07/20 00:28:38;;;;;;;;;;;22.40;80.20;;;;;;5052869;28;20007;-81
2023/07/20 00:31:04;;;;;;;;;;;22.50;79.70;;;;;;5052435;28;19947;-82
2023/07/20 00:33:30;;;;;;;;;;;22.50;79.20;;;;;;5052845;28;20545;-84
2023/07/20 00:35:56;;;;;;;;;;;22.60;78.50;;;;;;5052529;28;20353;-86
2023/07/20 00:38:22;;;;;;;;;;;22.70;78.60;;;;;;5052765;28;19913;-86
2023/07/20 00:40:49;;;;;;;;;;;22.80;78.10;;;;;;5069096;28;19912;-80
2023/07/20 00:43:15;;;;;;;;;;;22.80;77.80;;;;;;5052733;28;19925;-85
2023/07/20 00:45:41;;;;;;;;;;;22.70;77.30;;;;;;5052685;28;19983;-82
2023/07/20 00:48:08;;;;;;;;;;;22.70;77.10;;;;;;5052368;28;19920;-84
2023/07/20 00:50:35;;;;;;;;;;;22.80;77.40;;;;;;5052154;28;19942;-84
2023/07/20 00:53:04;;;;;;;;;;;22.80;77.10;;;;;;5052537;28;19974;-85
2023/07/20 00:55:30;;;;;;;;;;;22.80;77.10;;;;;;5051983;28;19920;-84
2023/07/20 00:57:57;;;;;;;;;;;22.80;76.70;;;;;;5068788;28;19921;-86
2023/07/20 01:00:23;;;;;;;;;;;22.80;77.10;;;;;;5052065;28;19939;-82
2023/07/20 01:02:51;;;;;;;;;;;22.80;77.00;;;;;;5052088;28;19924;-88
2023/07/20 01:05:17;;;;;;;;;;;22.80;76.80;;;;;;5052359;28;19913;-84
2023/07/20 01:08:09;;;;;;;;;;;22.80;76.70;;;;;;5052697;28;19921;-87
2023/07/20 01:10:54;;;;;;;;;;;22.80;76.60;;;;;;5053786;28;19912;-86
2023/07/20 01:13:22;;;;;;;;;;;22.80;76.30;;;;;;5052637;28;19921;-86
2023/07/20 01:16:06;;;;;;;;;;;22.80;76.20;;;;;;5052508;28;20285;-83
2023/07/20 01:18:32;;;;;;;;;;;22.80;76.10;;;;;;5052610;28;19947;-85
2023/07/20 01:21:36;;;;;;;;;;;22.80;76.20;;;;;;5052140;28;19920;-85
2023/07/20 01:24:30;;;;;;;;;;;22.80;75.90;;;;;;5053502;28;19917;-85
2023/07/20 01:27:33;;;;;;;;;;;22.80;75.80;;;;;;5051736;28;19964;-82
2023/07/20 01:30:40;;;;;;;;;;;22.80;75.80;;;;;;5053308;28;19924;-84
2023/07/20 01:33:08;;;;;;;;;;;22.80;75.70;;;;;;5055078;28;19986;-84
2023/07/20 01:35:34;;;;;;;;;;;22.80;75.50;;;;;;5056008;28;19939;-84
2023/07/20 01:38:01;;;;;;;;;;;22.70;75.50;;;;;;5072859;28;19916;-83
2023/07/20 01:40:27;;;;;;;;;;;22.80;75.50;;;;;;5055565;28;19916;-83
2023/07/20 01:42:53;;;;;;;;;;;22.80;75.50;;;;;;5055918;28;19917;-82
2023/07/20 01:45:19;;;;;;;;;;;22.70;75.60;;;;;;5072400;28;20011;-83
2023/07/20 01:47:45;;;;;;;;;;;22.80;75.40;;;;;;5055861;28;20372;-83
2023/07/20 01:50:11;;;;;;;;;;;22.70;75.20;;;;;;5055400;28;19923;-82
2023/07/20 01:52:37;;;;;;;;;;;22.80;75.10;;;;;;5055784;28;20374;-82
2023/07/20 01:55:04;;;;;;;;;;;22.70;75.00;;;;;;5055888;28;19917;-82
2023/07/20 01:57:30;;;;;;;;;;;22.80;74.70;;;;;;5055597;28;20419;-83
2023/07/20 01:59:56;;;;;;;;;;;22.80;74.20;;;;;;5038545;28;19923;-82
2023/07/20 02:02:26;;;;;;;;;;;22.80;74.80;;;;;;5038489;28;20277;-82
2023/07/20 02:04:52;;;;;;;;;;;22.70;74.80;;;;;;5055805;28;19971;-83
2023/07/20 02:07:18;;;;;;;;;;;22.70;74.70;;;;;;5056376;28;19960;-83
2023/07/20 02:09:44;;;;;;;;;;;22.70;74.60;;;;;;5072029;28;19930;-84
2023/07/20 02:12:10;;;;;;;;;;;22.60;74.30;;;;;;5038364;28;19925;-84
2023/07/20 02:14:35;;;;;;;;;;;22.50;74.40;;;;;;5039001;28;19916;-83
2023/07/20 02:17:01;;;;;;;;;;;22.50;74.40;;;;;;5054991;28;19924;-83
2023/07/20 02:19:28;;;;;;;;;;;22.50;74.30;;;;;;5055381;28;19916;-81
2023/07/20 02:21:54;;;;;;;;;;;22.40;74.10;;;;;;5037741;28;19947;-82
2023/07/20 02:24:20;;;;;;;;;;;22.40;74.10;;;;;;5055445;28;19916;-84
2023/07/20 02:26:46;;;;;;;;;;;22.40;73.80;;;;;;5054606;28;19920;-84
2023/07/20 02:29:12;;;;;;;;;;;22.40;74.60;;;;;;5038801;28;20051;-83
2023/07/20 02:31:39;;;;;;;;;;;22.40;73.60;;;;;;5054435;28;20320;-82
2023/07/20 02:34:23;;;;;;;;;;;22.30;73.50;;;;;;5071758;28;19947;-81
2023/07/20 02:36:49;;;;;;;;;;;22.30;73.30;;;;;;5071569;28;19920;-82
2023/07/20 02:39:15;;;;;;;;;;;22.30;73.40;;;;;;5055107;28;19928;-83
2023/07/20 02:41:42;;;;;;;;;;;22.10;73.70;;;;;;5055593;28;19917;-83
2023/07/20 02:44:08;;;;;;;;;;;22.00;73.50;;;;;;5053733;28;20415;-83
2023/07/20 02:46:35;;;;;;;;;;;22.00;74.20;;;;;;5054339;28;19917;-85
2023/07/20 02:49:01;;;;;;;;;;;21.80;74.60;;;;;;5038372;28;19917;-83
2023/07/20 02:51:27;;;;;;;;;;;21.80;74.90;;;;;;5070759;28;19928;-84
2023/07/20 02:53:52;;;;;;;;;;;21.70;74.70;;;;;;5071376;28;20297;-81
2023/07/20 02:56:18;;;;;;;;;;;21.80;74.60;;;;;;5071032;28;20373;-84
2023/07/20 02:58:45;;;;;;;;;;;21.80;74.60;;;;;;5037887;28;20334;-85
2023/07/20 03:01:12;;;;;;;;;;;21.80;74.50;;;;;;5070538;28;19970;-83
2023/07/20 03:03:38;;;;;;;;;;;21.70;74.60;;;;;;5037924;28;20008;-84
2023/07/20 03:06:24;;;;;;;;;;;21.70;74.20;;;;;;5037523;28;19924;-83
2023/07/20 03:08:51;;;;;;;;;;;21.60;74.60;;;;;;5054591;28;19917;-82
2023/07/20 03:11:18;;;;;;;;;;;21.60;74.60;;;;;;5053777;28;20016;-81
2023/07/20 03:13:45;;;;;;;;;;;21.60;74.50;;;;;;5054535;28;19921;-82
2023/07/20 03:16:12;;;;;;;;;;;21.50;74.70;;;;;;5053674;28;19916;-84
2023/07/20 03:18:38;;;;;;;;;;;21.50;74.90;;;;;;5054475;28;19947;-84
2023/07/20 03:21:06;;;;;;;;;;;21.50;75.40;;;;;;5053818;28;19963;-83
2023/07/20 03:23:32;;;;;;;;;;;21.40;75.90;;;;;;5037488;28;19913;-82
2023/07/20 03:25:58;;;;;;;;;;;21.40;76.00;;;;;;5037184;28;20019;-80
2023/07/20 03:28:23;;;;;;;;;;;21.30;76.10;;;;;;5053832;28;19924;-81
2023/07/20 03:31:08;;;;;;;;;;;21.30;76.30;;;;;;5054798;28;19921;-80
2023/07/20 03:33:34;;;;;;;;;;;21.30;76.20;;;;;;5070621;28;19917;-85
2023/07/20 03:36:00;;;;;;;;;;;21.30;76.20;;;;;;5070266;28;19917;-81
2023/07/20 03:38:27;;;;;;;;;;;21.30;76.60;;;;;;5053586;28;19913;-83
2023/07/20 03:40:55;;;;;;;;;;;21.30;76.30;;;;;;5069974;28;19917;-83
2023/07/20 03:43:22;;;;;;;;;;;21.30;76.20;;;;;;5036942;28;19912;-82
2023/07/20 03:45:48;;;;;;;;;;;21.30;76.20;;;;;;5053426;28;19917;-83
2023/07/20 03:48:33;;;;;;;;;;;21.30;76.10;;;;;;5037040;28;19916;-84
2023/07/20 03:53:44;;;;;;;;;;;21.20;76.10;;;;;;5054866;28;20352;-83
2023/07/20 03:56:10;;;;;;;;;;;21.30;76.30;;;;;;5052843;28;19928;-82
2023/07/20 03:58:36;;;;;;;;;;;21.30;76.20;;;;;;5070204;28;20265;-83
2023/07/20 04:01:02;;;;;;;;;;;21.30;76.20;;;;;;5069152;28;19947;-81
2023/07/20 04:03:28;;;;;;;;;;;21.30;76.00;;;;;;5054096;28;19966;-83
2023/07/20 04:05:55;;;;;;;;;;;21.30;76.40;;;;;;5053148;28;20331;-80
2023/07/20 04:08:23;;;;;;;;;;;21.30;76.00;;;;;;5054307;28;19913;-82
2023/07/20 04:10:49;;;;;;;;;;;21.30;76.20;;;;;;5053012;28;20385;-81
2023/07/20 04:13:15;;;;;;;;;;;21.30;76.00;;;;;;5052933;28;19921;-83
2023/07/20 04:15:42;;;;;;;;;;;21.20;75.80;;;;;;5036253;28;19917;-82
2023/07/20 04:18:08;;;;;;;;;;;21.30;75.50;;;;;;5036147;28;19963;-82
2023/07/20 04:20:34;;;;;;;;;;;21.30;75.40;;;;;;5036111;28;20014;-83
2023/07/20 04:23:00;;;;;;;;;;;21.30;75.60;;;;;;5052850;28;19943;-84
2023/07/20 04:25:26;;;;;;;;;;;21.20;75.60;;;;;;5069508;28;19966;-81
2023/07/20 04:27:53;;;;;;;;;;;21.30;75.40;;;;;;5053850;28;19921;-83
2023/07/20 04:30:20;;;;;;;;;;;21.30;75.10;;;;;;5035763;28;19986;-83
2023/07/20 04:32:46;;;;;;;;;;;21.30;75.00;;;;;;5054023;28;19928;-84
2023/07/20 04:35:37;;;;;;;;;;;21.30;74.70;;;;;;5035711;28;19916;-80
2023/07/20 04:38:03;;;;;;;;;;;21.40;74.60;;;;;;5053976;28;20432;-83
2023/07/20 04:40:28;;;;;;;;;;;21.40;74.60;;;;;;5052442;28;19921;-84
2023/07/20 04:42:54;;;;;;;;;;;21.40;74.40;;;;;;5035850;28;19923;-80
2023/07/20 04:45:22;;;;;;;;;;;21.50;74.50;;;;;;5053390;28;19984;-84
2023/07/20 04:47:50;;;;;;;;;;;21.50;74.40;;;;;;5052483;28;19920;-81
2023/07/20 04:50:16;;;;;;;;;;;21.60;74.30;;;;;;5035752;28;19958;-82
2023/07/20 04:52:42;;;;;;;;;;;21.70;74.20;;;;;;5052680;28;20007;-82
2023/07/20 04:55:09;;;;;;;;;;;21.70;73.90;;;;;;5052237;28;20395;-81
2023/07/20 04:57:35;;;;;;;;;;;21.70;73.80;;;;;;5052531;28;19963;-82
2023/07/20 05:00:00;;;;;;;;;;;21.70;73.90;;;;;;5052320;28;19917;-85
2023/07/20 05:02:26;;;;;;;;;;;21.80;74.00;;;;;;5053263;28;20391;-85
2023/07/20 05:04:52;;;;;;;;;;;21.80;74.00;;;;;;5036081;28;19917;-83
2023/07/20 05:07:18;;;;;;;;;;;21.80;74.00;;;;;;5053732;28;20389;-83
2023/07/20 05:09:44;;;;;;;;;;;21.90;73.90;;;;;;5056764;28;20003;-86
2023/07/20 05:12:11;;;;;;;;;;;21.80;74.10;;;;;;5039544;28;19923;-85
2023/07/20 05:14:38;;;;;;;;;;;21.90;74.40;;;;;;5040224;28;19917;-86
2023/07/20 05:17:05;;;;;;;;;;;21.90;74.20;;;;;;5056252;28;20263;-83
2023/07/20 05:19:30;;;;;;;;;;;21.90;73.50;;;;;;5040002;28;20351;-82
2023/07/20 05:21:56;;;;;;;;;;;22.10;74.10;;;;;;5072788;28;19959;-82
2023/07/20 05:24:22;;;;;;;;;;;22.10;73.90;;;;;;5057926;28;20007;-84
2023/07/20 05:26:48;;;;;;;;;;;22.20;73.60;;;;;;5072701;28;20050;-84
2023/07/20 05:29:15;;;;;;;;;;;22.30;73.50;;;;;;5056624;28;19916;-84
2023/07/20 05:31:41;;;;;;;;;;;22.40;73.30;;;;;;5055730;28;20399;-84
2023/07/20 05:34:07;;;;;;;;;;;22.40;73.10;;;;;;5056529;28;19917;-83
2023/07/20 05:36:33;;;;;;;;;;;22.50;73.00;;;;;;5072618;28;19916;-85
2023/07/20 05:38:59;;;;;;;;;;;22.60;72.80;;;;;;5056241;28;19979;-83
2023/07/20 05:41:25;;;;;;;;;;;22.60;72.70;;;;;;5038658;28;19916;-82
2023/07/20 05:43:51;;;;;;;;;;;22.70;72.60;;;;;;5057057;28;20004;-81
2023/07/20 05:46:17;;;;;;;;;;;22.80;72.30;;;;;;5038501;28;19917;-81
2023/07/20 05:48:43;;;;;;;;;;;22.80;72.00;;;;;;5055822;28;19912;-82
2023/07/20 05:51:09;;;;;;;;;;;22.90;72.10;;;;;;5056365;28;19920;-82
2023/07/20 05:53:36;;;;;;;;;;;23.00;72.20;;;;;;5038845;28;20015;-81
2023/07/20 05:56:02;;;;;;;;;;;23.00;71.80;;;;;;5055064;28;19921;-81
2023/07/20 05:58:28;;;;;;;;;;;23.10;71.40;;;;;;5055222;28;19920;-81
2023/07/20 06:00:54;;;;;;;;;;;23.20;71.10;;;;;;5054664;28;20380;-79
2023/07/20 06:03:23;;;;;;;;;;;23.30;70.80;;;;;;5071826;28;19923;-81
2023/07/20 06:05:49;;;;;;;;;;;23.40;70.60;;;;;;5056435;28;19916;-80
2023/07/20 06:08:15;;;;;;;;;;;23.40;70.40;;;;;;5038383;28;19931;-80
2023/07/20 06:10:41;;;;;;;;;;;23.50;70.00;;;;;;5071369;28;20035;-81
2023/07/20 06:13:07;;;;;;;;;;;23.60;69.20;;;;;;5055241;28;20016;-82
2023/07/20 06:15:35;;;;;;;;;;;23.70;69.00;;;;;;5054695;28;19913;-79
2023/07/20 06:18:01;;;;;;;;;;;23.80;68.10;;;;;;5054266;28;20266;-78
2023/07/20 06:20:27;;;;;;;;;;;23.90;67.90;;;;;;5054175;28;19999;-79
2023/07/20 06:22:53;;;;;;;;;;;24.00;67.20;;;;;;5071025;28;19947;-79
2023/07/20 06:25:20;;;;;;;;;;;24.10;66.70;;;;;;5054316;28;19913;-79
2023/07/20 06:27:46;;;;;;;;;;;24.20;66.20;;;;;;5070902;28;19924;-79
2023/07/20 06:30:12;;;;;;;;;;;24.40;65.70;;;;;;5053807;28;20505;-80
2023/07/20 06:32:39;;;;;;;;;;;24.50;65.10;;;;;;5037828;28;19924;-79
2023/07/20 06:35:05;;;;;;;;;;;24.60;63.90;;;;;;5054007;28;19916;-79
2023/07/20 06:37:32;;;;;;;;;;;24.80;63.70;;;;;;5054175;28;20296;-79
2023/07/20 06:39:58;;;;;;;;;;;25.00;63.20;;;;;;5055619;28;19917;-79
2023/07/20 06:42:24;;;;;;;;;;;25.20;61.80;;;;;;5053481;28;19923;-79
2023/07/20 06:44:50;;;;;;;;;;;25.40;61.70;;;;;;5037827;28;19917;-79
2023/07/20 06:47:16;;;;;;;;;;;25.40;62.00;;;;;;5070361;28;19931;-80
2023/07/20 06:50:27;;;;;;;;;;;25.30;60.60;;;;;;5070601;28;20007;-79
2023/07/20 06:52:28;;;;;;;;;;;25.30;60.40;;;;;;5046386;28;19916;-79
2023/07/20 06:54:54;;;;;;;;;;;25.40;60.70;;;;;;5053962;28;19917;-79
2023/07/20 06:57:20;;;;;;;;;;;25.50;60.30;;;;;;5053475;28;20260;-79
2023/07/20 06:59:46;;;;;;;;;;;25.70;59.50;;;;;;5064898;28;19924;-80
2023/07/20 07:02:12;;;;;;;;;;;25.80;58.90;;;;;;5073118;28;20360;-80
2023/07/20 07:04:37;;;;;;;;;;;25.90;58.00;;;;;;5073958;28;19923;-80
2023/07/20 07:07:04;;;;;;;;;;;26.00;57.40;;;;;;5056824;28;19923;-82
2023/07/20 07:09:30;;;;;;;;;;;26.10;55.10;;;;;;5073878;28;19920;-80
2023/07/20 07:11:56;;;;;;;;;;;26.30;56.10;;;;;;5073572;28;20345;-83
2023/07/20 07:14:22;;;;;;;;;;;26.40;55.20;;;;;;5074339;28;20281;-82
2023/07/20 07:16:48;;;;;;;;;;;26.60;54.80;;;;;;5073646;28;19916;-79
2023/07/20 07:19:13;;;;;;;;;;;26.60;53.50;;;;;;5073402;28;19986;-81
2023/07/20 07:21:39;;;;;;;;;;;26.40;54.90;;;;;;5073542;28;19923;-82
2023/07/20 07:24:07;;;;;;;;;;;26.40;55.10;;;;;;5073661;28;19943;-81
2023/07/20 07:26:33;;;;;;;;;;;26.20;54.50;;;;;;5073272;28;19970;-80
2023/07/20 07:28:59;;;;;;;;;;;26.30;55.30;;;;;;5056535;28;20002;-80
2023/07/20 07:31:25;;;;;;;;;;;26.30;55.00;;;;;;5072327;28;20003;-79
2023/07/20 07:33:51;;;;;;;;;;;26.40;54.50;;;;;;5073475;28;19916;-81
2023/07/20 07:36:17;;;;;;;;;;;26.60;54.60;;;;;;5056395;28;19939;-81
2023/07/20 07:38:43;;;;;;;;;;;26.70;54.50;;;;;;5073295;28;19912;-82
2023/07/20 07:41:09;;;;;;;;;;;26.70;53.90;;;;;;5072910;28;20338;-80
2023/07/20 07:43:35;;;;;;;;;;;26.70;53.80;;;;;;5072976;28;20327;-82
2023/07/20 07:46:01;;;;;;;;;;;26.80;53.70;;;;;;5056356;28;20177;-81
2023/07/20 07:48:27;;;;;;;;;;;27.00;53.20;;;;;;5073088;28;19918;-81
2023/07/20 07:50:54;;;;;;;;;;;27.10;52.20;;;;;;5072941;28;20313;-80
2023/07/20 07:53:20;;;;;;;;;;;27.30;51.60;;;;;;5073004;28;19928;-81
2023/07/20 07:56:07;;;;;;;;;;;27.60;52.20;;;;;;5055906;28;20015;-81
2023/07/20 07:58:33;;;;;;;;;;;27.80;51.90;;;;;;5073574;28;19916;-81
2023/07/20 08:00:59;;;;;;;;;;;28.10;51.80;;;;;;5071980;28;19955;-81
2023/07/20 08:03:26;;;;;;;;;;;28.30;51.20;;;;;;5072884;28;20418;-81
2023/07/20 08:05:55;;;;;;;;;;;28.40;50.60;;;;;;5072324;28;19920;-82
2023/07/20 08:08:21;;;;;;;;;;;28.50;50.80;;;;;;5072767;28;19919;-81
2023/07/20 08:10:47;;;;;;;;;;;28.60;50.70;;;;;;5072462;28;19939;-80
2023/07/20 08:13:14;;;;;;;;;;;28.70;51.30;;;;;;5056006;28;19923;-82
2023/07/20 08:15:46;;;;;;;;;;;28.70;51.30;;;;;;5072456;28;19920;-80
2023/07/20 08:18:11;;;;;;;;;;;28.80;51.10;;;;;;5072722;28;19942;-80
2023/07/20 08:20:37;;;;;;;;;;;28.80;51.30;;;;;;5055587;28;20018;-81
2023/07/20 08:23:03;;;;;;;;;;;28.80;50.90;;;;;;5055569;28;20365;-81
2023/07/20 08:25:29;;;;;;;;;;;28.90;49.90;;;;;;5072253;28;19916;-79
2023/07/20 08:27:55;;;;;;;;;;;28.80;50.20;;;;;;5072487;28;20300;-80
2023/07/20 08:30:23;;;;;;;;;;;29.00;50.30;;;;;;5055135;28;19921;-80
2023/07/20 08:32:49;;;;;;;;;;;29.10;50.20;;;;;;5072223;28;20011;-82
2023/07/20 08:35:15;;;;;;;;;;;29.20;49.30;;;;;;5055314;28;20432;-81
2023/07/20 08:37:42;;;;;;;;;;;29.20;48.80;;;;;;5055440;28;19916;-80
2023/07/20 08:40:09;;;;;;;;;;;29.20;48.10;;;;;;5055078;28;19927;-81
2023/07/20 08:42:35;;;;;;;;;;;29.30;47.20;;;;;;5072018;28;19916;-80
2023/07/20 08:45:06;;;;;;;;;;;29.30;46.60;;;;;;5055608;28;20564;-81
2023/07/20 08:47:32;;;;;;;;;;;29.40;47.30;;;;;;5072060;28;19946;-79
2023/07/20 08:49:59;;;;;;;;;;;29.50;47.50;;;;;;5072167;28;19916;-80
2023/07/20 08:52:25;;;;;;;;;;;29.70;47.00;;;;;;5071573;28;19916;-80
2023/07/20 08:54:53;;;;;;;;;;;30.00;46.60;;;;;;5055513;28;20471;-79
2023/07/20 08:57:21;;;;;;;;;;;30.30;46.90;;;;;;5071382;28;20333;-80
2023/07/20 08:59:47;;;;;;;;;;;30.70;44.40;;;;;;5071946;28;19962;-82
2023/07/20 09:02:17;;;;;;;;;;;31.10;45.30;;;;;;5071535;28;19916;-82
2023/07/20 09:04:44;;;;;;;;;;;31.70;43.60;;;;;;5055464;28;19916;-80
2023/07/20 09:07:10;;;;;;;;;;;32.40;43.00;;;;;;5071753;28;19921;-80
2023/07/20 09:09:41;;;;;;;;;;;32.90;41.60;;;;;;5054897;28;19967;-80
2023/07/20 09:12:14;;;;;;;;;;;33.60;40.80;;;;;;5054969;28;19916;-80
2023/07/20 09:14:43;;;;;;;;;;;34.30;40.10;;;;;;5071889;28;19946;-82
2023/07/20 09:17:13;;;;;;;;;;;34.80;38.40;;;;;;5054872;28;19916;-80
2023/07/20 09:19:45;;;;;;;;;;;35.30;38.00;;;;;;5071325;28;19916;-80
2023/07/20 09:22:11;;;;;;;;;;;35.90;36.40;;;;;;5071138;28;19962;-79
2023/07/20 09:24:37;;;;;;;;;;;36.50;35.60;;;;;;5054897;28;19916;-79
2023/07/20 09:27:03;;;;;;;;;;;37.20;34.50;;;;;;5054380;28;19925;-80
2023/07/20 09:29:30;;;;;;;;;;;37.70;32.50;;;;;;5054657;28;19917;-80
2023/07/20 09:32:17;;;;;;;;;;;38.40;33.20;;;;;;5072039;28;19916;-78
2023/07/20 09:34:43;;;;;;;;;;;38.90;28.50;;;;;;5071572;28;19955;-79
2023/07/20 09:37:09;;;;;;;;;;;39.40;30.20;;;;;;5070975;28;19916;-79
2023/07/20 09:40:00;;;;;;;;;;;40.00;28.80;;;;;;5071482;28;19938;-79
2023/07/20 09:42:27;;;;;;;;;;;40.70;28.20;;;;;;5071071;28;19920;-79
2023/07/20 09:44:53;;;;;;;;;;;41.10;25.90;;;;;;5071536;28;19923;-79
2023/07/20 09:47:38;;;;;;;;;;;41.70;26.60;;;;;;5072048;28;19962;-79
2023/07/20 09:50:04;;;;;;;;;;;42.50;25.70;;;;;;5054495;28;19916;-79
2023/07/20 09:52:31;;;;;;;;;;;43.20;25.60;;;;;;5072375;28;19920;-80
2023/07/20 09:54:57;;;;;;;;;;;43.60;23.50;;;;;;5058421;28;19942;-79
2023/07/20 09:57:23;;;;;;;;;;;44.00;23.00;;;;;;5074557;28;19967;-78
2023/07/20 09:59:49;;;;;;;;;;;44.50;22.90;;;;;;5057924;28;19916;-79
2023/07/20 10:02:34;;;;;;;;;;;45.00;22.70;;;;;;5057561;28;19920;-79
2023/07/20 10:05:04;;;;;;;;;;;45.60;21.30;;;;;;5058251;28;19924;-79
2023/07/20 10:07:30;;;;;;;;;;;46.00;20.90;;;;;;5074714;28;20323;-79
2023/07/20 10:09:59;;;;;;;;;;;46.50;20.40;;;;;;5074775;28;20288;-79
2023/07/20 10:12:27;;;;;;;;;;;47.00;20.00;;;;;;5057489;28;19916;-79
2023/07/20 10:15:12;;;;;;;;;;;47.50;19.70;;;;;;5074871;28;19923;-79
2023/07/20 10:17:49;;;;;;;;;;;48.10;19.80;;;;;;5074666;28;20389;-79
2023/07/20 10:20:17;;;;;;;;;;;48.30;19.00;;;;;;5057388;28;19921;-80
2023/07/20 10:22:43;;;;;;;;;;;48.50;18.70;;;;;;5074490;28;19959;-79
2023/07/20 10:25:10;;;;;;;;;;;48.90;18.10;;;;;;5074019;28;19926;-79
2023/07/20 10:27:36;;;;;;;;;;;49.30;18.40;;;;;;5074456;28;19927;-79
2023/07/20 10:30:03;;;;;;;;;;;49.70;17.50;;;;;;5075364;28;19920;-79
2023/07/20 10:32:30;;;;;;;;;;;49.40;16.90;;;;;;5057845;28;20269;-79
2023/07/20 10:34:56;;;;;;;;;;;49.40;17.10;;;;;;5074413;28;19923;-79
2023/07/20 10:37:59;;;;;;;;;;;49.90;17.70;;;;;;5057052;28;19924;-79
2023/07/20 10:40:44;;;;;;;;;;;50.40;17.00;;;;;;5074779;28;19917;-79
2023/07/20 10:43:11;;;;;;;;;;;50.60;15.60;;;;;;5075354;28;19924;-79
2023/07/20 10:45:37;;;;;;;;;;;50.80;15.70;;;;;;5057201;28;20281;-79
2023/07/20 10:48:04;;;;;;;;;;;51.20;16.00;;;;;;5075450;28;19956;-79
2023/07/20 10:50:30;;;;;;;;;;;51.60;15.90;;;;;;5073668;28;19989;-79
2023/07/20 10:53:17;;;;;;;;;;;52.10;15.90;;;;;;5074024;28;20365;-79
2023/07/20 10:55:44;;;;;;;;;;;52.70;15.10;;;;;;5056981;28;19917;-79
2023/07/20 10:58:28;;;;;;;;;;;53.30;14.40;;;;;;5057149;28;19920;-79
2023/07/20 11:01:13;;;;;;;;;;;53.20;14.30;;;;;;5056188;28;19924;-78
2023/07/20 11:03:40;;;;;;;;;;;53.60;14.20;;;;;;5056951;28;19920;-79
2023/07/20 11:06:43;;;;;;;;;;;53.90;13.90;;;;;;5072398;28;19916;-79
2023/07/20 11:09:11;;;;;;;;;;;53.50;12.70;;;;;;5074925;28;20326;-79
2023/07/20 11:11:38;;;;;;;;;;;52.70;14.00;;;;;;5072936;28;19917;-79
2023/07/20 11:14:08;;;;;;;;;;;52.40;14.20;;;;;;5073551;28;19922;-79
2023/07/20 11:16:52;;;;;;;;;;;53.20;14.10;;;;;;5056264;28;19923;-79
2023/07/20 11:19:37;;;;;;;;;;;53.90;13.10;;;;;;5073475;28;20023;-79
2023/07/20 11:22:07;;;;;;;;;;;54.30;13.20;;;;;;5072886;28;19942;-79
2023/07/20 11:24:34;;;;;;;;;;;54.60;12.50;;;;;;5073180;28;19916;-79
2023/07/20 11:27:01;;;;;;;;;;;54.90;12.20;;;;;;5072625;28;19974;-79
2023/07/20 11:29:27;;;;;;;;;;;55.30;12.60;;;;;;5073142;28;19986;-79
2023/07/20 11:31:53;;;;;;;;;;;55.00;11.80;;;;;;5072447;28;19922;-79
2023/07/20 11:34:20;;;;;;;;;;;55.10;12.20;;;;;;5056479;28;19936;-78
2023/07/20 11:36:51;;;;;;;;;;;55.30;12.30;;;;;;5072692;28;20367;-78
2023/07/20 11:42:03;;;;;;;;;;;56.30;11.70;;;;;;5072809;28;19962;-78
2023/07/20 11:44:31;;;;;;;;;;;56.40;10.90;;;;;;5073179;28;19924;-79
2023/07/20 11:47:15;;;;;;;;;;;56.70;11.00;;;;;;5072482;28;19912;-80
2023/07/20 11:49:43;;;;;;;;;;;56.60;11.20;;;;;;5056238;28;19970;-79
2023/07/20 11:52:29;;;;;;;;;;;56.60;10.70;;;;;;5055385;28;19912;-79
2023/07/20 11:54:55;;;;;;;;;;;57.20;11.30;;;;;;5056152;28;19928;-79
2023/07/20 11:57:21;;;;;;;;;;;57.50;11.30;;;;;;5072671;28;19912;-78
2023/07/20 12:00:09;;;;;;;;;;;57.80;11.10;;;;;;5072409;28;19921;-79
2023/07/20 12:02:35;;;;;;;;;;;58.00;10.70;;;;;;5072619;28;19913;-78
2023/07/20 12:05:02;;;;;;;;;;;57.70;9.60;;;;;;5074095;28;19969;-80
2023/07/20 12:07:28;;;;;;;;;;;58.00;11.10;;;;;;5072229;28;20357;-80
2023/07/20 12:10:13;;;;;;;;;;;58.10;10.50;;;;;;5055909;28;20022;-81
2023/07/20 12:12:59;;;;;;;;;;;58.00;10.30;;;;;;5072312;28;20294;-80
2023/07/20 12:15:26;;;;;;;;;;;57.90;10.60;;;;;;5071904;28;20002;-80
2023/07/20 12:17:53;;;;;;;;;;;58.30;10.30;;;;;;5055762;28;19916;-80
2023/07/20 12:20:38;;;;;;;;;;;58.40;10.30;;;;;;5055111;28;19920;-80
2023/07/20 12:23:23;;;;;;;;;;;58.40;10.60;;;;;;5072334;28;19923;-80
2023/07/20 12:25:49;;;;;;;;;;;58.80;10.00;;;;;;5071734;28;19917;-80
2023/07/20 12:28:19;;;;;;;;;;;58.80;9.40;;;;;;5072136;28;20004;-79
2023/07/20 12:30:46;;;;;;;;;;;59.00;10.30;;;;;;5054909;28;19924;-79
2023/07/20 12:33:16;;;;;;;;;;;59.30;9.60;;;;;;5055334;28;19912;-79
2023/07/20 12:35:43;;;;;;;;;;;59.40;10.30;;;;;;5071946;28;20285;-79
2023/07/20 12:38:09;;;;;;;;;;;59.30;10.00;;;;;;5072047;28;19995;-79
2023/07/20 12:40:36;;;;;;;;;;;58.40;9.60;;;;;;5071533;28;19917;-79
2023/07/20 12:43:02;;;;;;;;;;;57.00;10.70;;;;;;5055235;28;19959;-79
2023/07/20 12:45:28;;;;;;;;;;;56.10;11.10;;;;;;5055083;28;19943;-79
2023/07/20 12:47:54;;;;;;;;;;;56.30;11.90;;;;;;5072004;28;19956;-79
2023/07/20 12:50:19;;;;;;;;;;;57.20;10.90;;;;;;5072889;28;19923;-79
2023/07/20 12:52:45;;;;;;;;;;;57.70;10.60;;;;;;5071873;28;19920;-78
2023/07/20 12:55:11;;;;;;;;;;;58.30;11.30;;;;;;5054788;28;19920;-79
2023/07/20 12:57:38;;;;;;;;;;;58.00;11.00;;;;;;5055074;28;20343;-79
2023/07/20 13:00:07;;;;;;;;;;;57.00;11.50;;;;;;5054544;28;19959;-79
2023/07/20 13:02:33;;;;;;;;;;;57.50;11.00;;;;;;5055150;28;19962;-80
2023/07/20 13:05:00;;;;;;;;;;;57.30;11.50;;;;;;5055119;28;19916;-80
2023/07/20 13:07:44;;;;;;;;;;;57.00;11.30;;;;;;5072467;28;19970;-79
2023/07/20 13:10:11;;;;;;;;;;;57.70;11.10;;;;;;5071273;28;19920;-79
2023/07/20 13:12:38;;;;;;;;;;;58.30;11.10;;;;;;5071539;28;19916;-79
2023/07/20 13:15:05;;;;;;;;;;;58.70;10.60;;;;;;5071724;28;19916;-79
2023/07/20 13:17:52;;;;;;;;;;;58.00;11.00;;;;;;5071538;28;19916;-80
2023/07/20 13:20:18;;;;;;;;;;;55.60;11.30;;;;;;5071184;28;19939;-80
2023/07/20 13:22:44;;;;;;;;;;;54.20;12.20;;;;;;5071536;28;19920;-79
2023/07/20 13:25:10;;;;;;;;;;;53.80;11.60;;;;;;5071037;28;20409;-79
2023/07/20 13:27:36;;;;;;;;;;;52.80;12.70;;;;;;5055119;28;19965;-80
2023/07/20 13:30:07;;;;;;;;;;;53.50;12.70;;;;;;5076465;28;19925;-80
2023/07/20 13:32:34;;;;;;;;;;;53.80;12.40;;;;;;5075571;28;19916;-80
2023/07/20 13:35:00;;;;;;;;;;;54.50;12.40;;;;;;5058845;28;19927;-79
2023/07/20 13:37:27;;;;;;;;;;;52.70;10.70;;;;;;5058142;28;19913;-81
2023/07/20 13:39:52;;;;;;;;;;;51.60;12.40;;;;;;5075552;28;20361;-80
2023/07/20 13:42:18;;;;;;;;;;;51.40;13.00;;;;;;5074998;28;19913;-79
2023/07/20 13:44:46;;;;;;;;;;;51.80;12.10;;;;;;5075326;28;19921;-80
2023/07/20 13:47:12;;;;;;;;;;;52.70;12.80;;;;;;5075981;28;19923;-80
2023/07/20 13:49:38;;;;;;;;;;;53.40;13.10;;;;;;5076532;28;19924;-80
2023/07/20 13:52:04;;;;;;;;;;;53.80;12.70;;;;;;5057935;28;19916;-81
2023/07/20 13:54:30;;;;;;;;;;;53.40;11.40;;;;;;5076501;28;19989;-81
2023/07/20 13:56:56;;;;;;;;;;;52.90;12.80;;;;;;5074537;28;19935;-80
2023/07/20 13:59:23;;;;;;;;;;;51.70;13.30;;;;;;5074682;28;19959;-81
2023/07/20 14:01:49;;;;;;;;;;;50.40;14.10;;;;;;5074352;28;20308;-81
2023/07/20 14:04:15;;;;;;;;;;;49.00;15.60;;;;;;5076102;28;19920;-81
2023/07/20 14:06:41;;;;;;;;;;;47.90;16.50;;;;;;5057636;28;19912;-81
2023/07/20 14:09:07;;;;;;;;;;;46.80;17.00;;;;;;5058037;28;20358;-82
2023/07/20 14:11:33;;;;;;;;;;;45.80;17.60;;;;;;5057549;28;19957;-81
2023/07/20 14:13:59;;;;;;;;;;;45.10;18.30;;;;;;5074608;28;19924;-78
2023/07/20 14:16:25;;;;;;;;;;;44.40;19.00;;;;;;5075582;28;20278;-82
2023/07/20 14:18:51;;;;;;;;;;;43.80;19.10;;;;;;5075015;28;19924;-81
2023/07/20 14:21:19;;;;;;;;;;;43.30;19.30;;;;;;5057274;28;19923;-83
2023/07/20 14:23:46;;;;;;;;;;;42.70;18.70;;;;;;5074661;28;20381;-82
2023/07/20 14:26:12;;;;;;;;;;;42.20;19.70;;;;;;5057228;28;20320;-80
2023/07/20 14:28:38;;;;;;;;;;;41.70;19.50;;;;;;5074575;28;19916;-80
2023/07/20 14:31:04;;;;;;;;;;;41.30;20.80;;;;;;5073811;28;19916;-81